Startpagina
METAR-TAF:

METAR-TAF

Vliegvelden :

Le Mans, Frankrijk

breedte: 47-56N, lengte: 000-12E, hoogte: 59 m

Actueel weer

Dit bericht is 21 minuten geleden gemaakt, om 13:30 UTC
Wind 8 kt uit het oosten, variërend tussen het oostnoordoosten en het zuidzuidoosten
Temperatuur 25°C
Vochtigheid 24%
Druk 1020 hPa
Zicht 10 km of meer
geen wolken onder 1500 m en geen cumulonimbus

METAR: LFRM 101330Z AUTO 10008KT 060V150 CAVOK 25/03 Q1020

Tijdstip: 15:51 (13:51 UTC)


TAF: ontbreekt

Waarnemingen en weersverwachtingen van meer dan 4000 vliegvelden (METAR en TAF).

De beschikbare stations zijn de gele en rode punten op de kaart.

Ga met uw muis naar het station om de naam te zien.

Klik dan om waarnemingen en weersverwachtingen te zien.

kaart wijzigen: klik op de groene knoppen met een zwart kruis om in te zoomen, op de groene knop met een streepje om uit te zoomen of op de groene pijlen voor aangrenzende kaarten.


METAR-TAF: